createdAt,value
2024-01-16T00:00:47.954Z,2.25
2024-01-16T00:03:15.111Z,1.88
2024-01-16T00:05:42.246Z,2.15
2024-01-16T00:08:09.477Z,2.20
2024-01-16T00:10:36.695Z,1.58
2024-01-16T00:13:03.859Z,1.85
2024-01-16T00:15:31.303Z,2.10
2024-01-16T00:17:58.571Z,3.95
2024-01-16T00:20:26.981Z,2.80
2024-01-16T00:22:54.344Z,2.92
2024-01-16T00:25:22.600Z,3.08
2024-01-16T00:27:49.946Z,2.95
2024-01-16T00:30:17.249Z,4.10
2024-01-16T00:32:44.599Z,2.72
2024-01-16T00:35:11.956Z,2.50
2024-01-16T00:37:39.060Z,1.52
2024-01-16T00:40:07.051Z,1.30
2024-01-16T00:42:34.236Z,1.30
2024-01-16T00:45:02.046Z,1.77
2024-01-16T00:47:29.282Z,2.10
2024-01-16T00:49:56.507Z,1.92
2024-01-16T00:52:23.764Z,1.52
2024-01-16T00:54:50.821Z,1.88
2024-01-16T00:57:20.835Z,1.25
2024-01-16T00:59:48.277Z,2.20
2024-01-16T01:02:16.393Z,2.40
2024-01-16T01:04:44.492Z,1.80
2024-01-16T01:07:15.365Z,2.38
2024-01-16T01:09:42.726Z,2.20
2024-01-16T01:12:10.587Z,2.28
2024-01-16T01:14:37.955Z,2.70
2024-01-16T01:17:05.457Z,3.17
2024-01-16T01:19:32.724Z,3.45
2024-01-16T01:22:00.039Z,2.92
2024-01-16T01:24:27.242Z,3.08
2024-01-16T01:26:54.560Z,2.47
2024-01-16T01:29:21.854Z,2.60
2024-01-16T01:31:49.675Z,2.58
2024-01-16T01:34:17.267Z,3.10
2024-01-16T01:36:44.840Z,2.50
2024-01-16T01:39:12.477Z,1.98
2024-01-16T01:41:40.556Z,2.28
2024-01-16T01:44:08.314Z,2.85
2024-01-16T01:46:37.122Z,2.58
2024-01-16T01:49:05.089Z,2.50
2024-01-16T01:51:32.706Z,2.50
2024-01-16T01:54:02.747Z,2.95
2024-01-16T01:56:30.121Z,2.58
2024-01-16T01:59:00.167Z,2.38
2024-01-16T02:01:29.188Z,2.75
2024-01-16T02:03:58.025Z,2.60
2024-01-16T02:06:25.675Z,2.88
2024-01-16T02:08:53.343Z,2.70
2024-01-16T02:11:20.872Z,3.28
2024-01-16T02:13:48.188Z,2.35
2024-01-16T02:16:22.018Z,3.00
2024-01-16T02:18:49.721Z,2.95
2024-01-16T02:21:22.374Z,2.90
2024-01-16T02:23:50.059Z,3.55
2024-01-16T02:26:18.506Z,3.30
2024-01-16T02:28:45.773Z,3.60
2024-01-16T02:31:13.895Z,3.58
2024-01-16T02:33:41.372Z,3.15
2024-01-16T02:36:08.757Z,2.88
2024-01-16T02:38:36.029Z,3.33
2024-01-16T02:41:03.341Z,3.20
2024-01-16T02:43:30.562Z,3.42
2024-01-16T02:45:57.811Z,3.58
2024-01-16T02:48:25.299Z,3.60
2024-01-16T02:50:52.517Z,4.13
2024-01-16T02:53:19.791Z,4.13
2024-01-16T02:55:47.073Z,3.38
2024-01-16T02:58:14.247Z,3.20
2024-01-16T03:00:41.493Z,3.58
2024-01-16T03:03:09.570Z,4.28
2024-01-16T03:05:37.433Z,3.28
2024-01-16T03:08:05.029Z,2.92
2024-01-16T03:10:32.314Z,2.90
2024-01-16T03:12:59.463Z,3.25
2024-01-16T03:15:27.056Z,3.08
2024-01-16T03:17:54.451Z,3.85
2024-01-16T03:20:21.692Z,3.30
2024-01-16T03:22:48.814Z,2.92
2024-01-16T03:25:17.127Z,2.90
2024-01-16T03:27:45.316Z,2.92
2024-01-16T03:30:12.762Z,1.95
2024-01-16T03:32:40.647Z,2.47
2024-01-16T03:35:08.577Z,2.42
2024-01-16T03:37:35.965Z,2.83
2024-01-16T03:40:03.413Z,3.00
2024-01-16T03:42:30.629Z,2.53
2024-01-16T03:44:58.232Z,3.13
2024-01-16T03:47:25.582Z,3.42
2024-01-16T03:49:53.627Z,2.85
2024-01-16T03:52:20.875Z,2.63
2024-01-16T03:54:47.969Z,2.75
2024-01-16T03:57:15.190Z,2.80
2024-01-16T03:59:42.648Z,2.50
2024-01-16T04:02:09.830Z,2.63
2024-01-16T04:04:37.052Z,5.22
2024-01-16T04:07:04.336Z,12.00
2024-01-16T04:09:31.583Z,11.40
2024-01-16T04:11:58.728Z,14.15
2024-01-16T04:14:26.024Z,14.73
2024-01-16T04:16:53.617Z,19.77
2024-01-16T04:19:21.088Z,21.05
2024-01-16T04:21:48.352Z,23.08
2024-01-16T04:24:15.513Z,24.25
2024-01-16T04:26:42.909Z,25.98
2024-01-16T04:29:11.043Z,24.13
2024-01-16T04:31:42.694Z,21.92
2024-01-16T04:34:10.060Z,20.73
2024-01-16T04:36:37.185Z,19.13
2024-01-16T04:39:06.975Z,19.13
2024-01-16T04:41:34.231Z,17.90
2024-01-16T04:44:01.765Z,18.08
2024-01-16T04:46:28.944Z,17.48
2024-01-16T04:48:56.761Z,16.05
2024-01-16T04:51:24.010Z,16.75
2024-01-16T04:53:51.296Z,17.48
2024-01-16T04:56:18.737Z,18.50
2024-01-16T04:58:46.035Z,18.92
2024-01-16T05:01:14.508Z,18.30
2024-01-16T05:03:41.779Z,17.73
2024-01-16T05:06:18.186Z,17.10
2024-01-16T05:08:45.424Z,16.25
2024-01-16T05:11:13.013Z,17.05
2024-01-16T05:13:40.389Z,18.45
2024-01-16T05:16:07.827Z,19.08
2024-01-16T05:18:35.387Z,18.70
2024-01-16T05:21:03.734Z,17.88
2024-01-16T05:23:30.956Z,21.98
2024-01-16T05:25:58.252Z,22.42
2024-01-16T05:28:25.703Z,22.52
2024-01-16T05:30:53.053Z,20.75
2024-01-16T05:33:20.382Z,18.95
2024-01-16T05:35:47.701Z,15.90
2024-01-16T05:38:14.902Z,16.58
2024-01-16T05:40:43.027Z,19.10
2024-01-16T05:43:10.298Z,20.63
2024-01-16T05:45:37.429Z,23.33
2024-01-16T05:48:05.061Z,22.23
2024-01-16T05:50:32.547Z,23.23
2024-01-16T05:52:59.723Z,24.65
2024-01-16T05:55:26.795Z,23.40
2024-01-16T05:57:53.949Z,22.70
2024-01-16T06:00:23.981Z,23.92
2024-01-16T06:02:51.162Z,24.48
2024-01-16T06:05:18.384Z,25.13
2024-01-16T06:07:45.735Z,24.15
2024-01-16T06:10:15.952Z,22.60
2024-01-16T06:12:43.780Z,22.95
2024-01-16T06:15:12.751Z,24.80
2024-01-16T06:17:40.219Z,23.30
2024-01-16T06:20:08.157Z,23.75
2024-01-16T06:22:36.566Z,24.75
2024-01-16T06:25:03.850Z,23.63
2024-01-16T06:27:31.069Z,23.88
2024-01-16T06:29:58.333Z,26.52
2024-01-16T06:32:25.555Z,23.27
2024-01-16T06:34:52.972Z,23.95
2024-01-16T06:37:20.254Z,22.80
2024-01-16T06:39:47.896Z,26.52
2024-01-16T06:42:15.199Z,26.55
2024-01-16T06:44:42.437Z,23.73
2024-01-16T06:47:09.636Z,24.45
2024-01-16T06:49:37.082Z,22.55
2024-01-16T06:52:04.494Z,20.75
2024-01-16T06:54:31.720Z,25.23
2024-01-16T06:56:58.958Z,23.52
2024-01-16T06:59:26.224Z,26.70
2024-01-16T07:01:53.439Z,39.35
2024-01-16T07:04:20.521Z,35.03
2024-01-16T07:06:48.632Z,35.28
2024-01-16T07:09:17.307Z,34.22
2024-01-16T07:11:44.616Z,28.88
2024-01-16T07:14:11.893Z,27.50
2024-01-16T07:16:39.486Z,28.17
2024-01-16T07:19:07.005Z,28.50
2024-01-16T07:21:35.066Z,27.05
2024-01-16T07:24:02.301Z,26.60
2024-01-16T07:26:31.107Z,25.30
2024-01-16T07:28:58.519Z,25.05
2024-01-16T07:31:26.857Z,20.85
2024-01-16T07:33:54.264Z,24.75
2024-01-16T07:36:21.538Z,26.90
2024-01-16T07:38:49.313Z,25.58
2024-01-16T07:41:16.638Z,29.38
2024-01-16T07:43:45.514Z,32.55
2024-01-16T07:46:13.884Z,34.92
2024-01-16T07:48:41.175Z,34.03
2024-01-16T07:51:08.401Z,39.05
2024-01-16T07:53:35.542Z,40.88
2024-01-16T07:56:02.808Z,38.13
2024-01-16T07:58:29.872Z,36.83
2024-01-16T08:00:57.058Z,39.13
2024-01-16T08:03:24.279Z,39.20
2024-01-16T08:05:51.571Z,43.20
2024-01-16T08:08:18.737Z,42.55
2024-01-16T08:10:46.057Z,45.33
2024-01-16T08:13:13.155Z,48.00
2024-01-16T08:15:40.363Z,48.10
2024-01-16T08:18:07.884Z,46.22
2024-01-16T08:20:35.169Z,46.40
2024-01-16T08:23:02.348Z,47.90
2024-01-16T08:25:29.434Z,58.72
2024-01-16T08:27:56.553Z,55.58
2024-01-16T08:30:24.233Z,47.15
2024-01-16T08:32:51.624Z,54.15
2024-01-16T08:35:19.118Z,53.35
2024-01-16T08:37:46.309Z,57.25
2024-01-16T08:40:13.408Z,58.75
2024-01-16T08:42:40.641Z,64.35
2024-01-16T08:45:08.223Z,59.38
2024-01-16T08:47:35.719Z,73.43
2024-01-16T08:50:03.588Z,70.20
2024-01-16T08:52:30.733Z,80.93
2024-01-16T08:54:58.946Z,80.97
2024-01-16T08:57:27.865Z,79.43
2024-01-16T08:59:56.669Z,79.75
2024-01-16T09:02:24.036Z,77.15
2024-01-16T09:04:51.891Z,72.35
2024-01-16T09:07:19.979Z,76.85
2024-01-16T09:09:47.375Z,75.20
2024-01-16T09:12:14.890Z,75.40
2024-01-16T09:14:42.732Z,73.78
2024-01-16T09:17:10.177Z,75.28
2024-01-16T09:19:37.687Z,78.20
2024-01-16T09:22:05.092Z,72.45
2024-01-16T09:24:32.501Z,76.43
2024-01-16T09:26:59.776Z,79.78
2024-01-16T09:29:27.011Z,75.78
2024-01-16T09:31:54.201Z,76.90
2024-01-16T09:34:21.463Z,77.45
2024-01-16T09:36:48.564Z,73.88
2024-01-16T09:39:19.178Z,70.57
2024-01-16T09:41:47.322Z,75.15
2024-01-16T09:44:15.166Z,75.55
2024-01-16T09:46:47.693Z,72.43
2024-01-16T09:49:16.775Z,75.45
2024-01-16T09:51:45.150Z,97.35
2024-01-16T09:54:12.430Z,84.78
2024-01-16T09:56:47.153Z,74.63
2024-01-16T09:59:18.634Z,70.82
2024-01-16T10:01:46.781Z,71.80
2024-01-16T10:04:14.724Z,69.18
2024-01-16T10:06:47.225Z,63.80
2024-01-16T10:09:14.569Z,68.75
2024-01-16T10:11:42.470Z,70.45
2024-01-16T10:14:10.735Z,69.20
2024-01-16T10:16:58.334Z,68.38
2024-01-16T10:19:35.151Z,75.55
2024-01-16T10:22:10.109Z,76.80
2024-01-16T10:24:37.229Z,72.30
2024-01-16T10:27:04.866Z,70.13
2024-01-16T10:29:43.252Z,71.82
2024-01-16T10:32:15.068Z,69.63
2024-01-16T10:34:43.623Z,68.63
2024-01-16T10:37:11.028Z,71.47
2024-01-16T10:39:43.651Z,70.63
2024-01-16T10:44:39.501Z,75.35
2024-01-16T10:47:17.496Z,68.80
2024-01-16T10:49:46.630Z,64.88
2024-01-16T10:52:14.026Z,61.00
2024-01-16T10:54:44.200Z,53.13
2024-01-16T10:57:14.387Z,52.33
2024-01-16T10:59:49.872Z,53.65
2024-01-16T11:02:24.383Z,52.63
2024-01-16T11:04:54.160Z,50.63
2024-01-16T11:07:23.710Z,53.90
2024-01-16T11:09:51.389Z,52.15
2024-01-16T11:12:20.917Z,50.20
2024-01-16T11:14:53.374Z,51.67
2024-01-16T11:17:21.849Z,47.25
2024-01-16T11:20:07.210Z,49.33
2024-01-16T11:22:42.681Z,45.83
2024-01-16T11:25:14.860Z,47.97
2024-01-16T11:27:43.806Z,46.42
2024-01-16T11:30:13.006Z,44.55
2024-01-16T11:32:43.067Z,33.05
2024-01-16T11:35:10.765Z,41.10
2024-01-16T11:37:40.677Z,44.45
2024-01-16T11:40:22.745Z,35.65
2024-01-16T11:42:51.415Z,42.13
2024-01-16T11:45:31.382Z,45.63
2024-01-16T11:48:16.191Z,43.05
2024-01-16T11:50:44.497Z,34.53
2024-01-16T11:53:11.768Z,30.95
2024-01-16T11:55:53.826Z,33.78
2024-01-16T11:58:58.440Z,30.45
2024-01-16T12:01:27.404Z,33.05
2024-01-16T12:04:06.990Z,34.55
2024-01-16T12:06:36.568Z,36.53
2024-01-16T12:09:16.961Z,30.33
2024-01-16T12:11:46.641Z,32.03
2024-01-16T12:14:14.061Z,27.95
2024-01-16T12:16:41.440Z,26.75
2024-01-16T12:19:13.345Z,27.50
2024-01-16T12:21:45.597Z,24.25
2024-01-16T12:24:16.020Z,25.08
2024-01-16T12:26:45.901Z,26.80
2024-01-16T12:29:13.372Z,27.65
2024-01-16T12:31:40.611Z,27.17
2024-01-16T12:34:11.519Z,29.00
2024-01-16T12:36:39.689Z,27.75
2024-01-16T12:39:08.206Z,27.23
2024-01-16T12:41:43.798Z,27.92
2024-01-16T12:44:16.399Z,23.73
2024-01-16T12:47:05.206Z,18.30
2024-01-16T12:49:33.026Z,18.08
2024-01-16T12:52:19.640Z,21.25
2024-01-16T12:54:47.359Z,16.88
2024-01-16T12:57:21.835Z,14.88
2024-01-16T12:59:50.540Z,14.85
2024-01-16T13:02:26.076Z,15.50
2024-01-16T13:05:01.401Z,19.77
2024-01-16T13:07:29.280Z,20.33
2024-01-16T13:10:10.329Z,19.70
2024-01-16T13:12:37.995Z,20.35
2024-01-16T13:15:08.416Z,18.70
2024-01-16T13:17:36.469Z,18.45
2024-01-16T13:20:05.742Z,16.52
2024-01-16T13:22:40.710Z,19.85
2024-01-16T13:25:12.836Z,22.25
2024-01-16T13:27:39.916Z,18.55
2024-01-16T13:30:07.954Z,21.10
2024-01-16T13:32:38.830Z,19.13
2024-01-16T13:35:10.397Z,22.20
2024-01-16T13:37:42.471Z,22.17
2024-01-16T13:40:11.272Z,19.80
2024-01-16T13:42:39.845Z,22.48
2024-01-16T13:45:07.409Z,20.27
2024-01-16T13:47:34.696Z,19.15
2024-01-16T13:50:04.750Z,17.63
2024-01-16T13:52:32.025Z,18.70
2024-01-16T13:54:59.141Z,21.38
2024-01-16T13:57:26.241Z,19.20
2024-01-16T13:59:53.629Z,17.00
2024-01-16T14:02:20.827Z,16.73
2024-01-16T14:04:47.973Z,18.05
2024-01-16T14:07:15.169Z,17.38
2024-01-16T14:09:44.908Z,16.95
2024-01-16T14:12:13.646Z,16.83
2024-01-16T14:14:42.963Z,18.15
2024-01-16T14:17:11.195Z,19.38
2024-01-16T14:19:39.889Z,17.65
2024-01-16T14:22:07.584Z,16.67
2024-01-16T14:24:35.262Z,16.88
2024-01-16T14:27:02.494Z,17.48
2024-01-16T14:29:30.365Z,20.10
2024-01-16T14:31:58.648Z,17.58
2024-01-16T14:34:27.290Z,20.67
2024-01-16T14:36:55.462Z,21.33
2024-01-16T14:39:32.167Z,21.65
2024-01-16T14:42:03.714Z,23.55
2024-01-16T14:44:31.090Z,22.17
2024-01-16T14:46:58.368Z,22.20
2024-01-16T14:49:25.737Z,20.38
2024-01-16T14:51:53.125Z,21.80
2024-01-16T14:54:20.668Z,22.02
2024-01-16T14:56:47.992Z,21.00
2024-01-16T14:59:16.436Z,21.35
2024-01-16T15:01:45.777Z,22.45
2024-01-16T15:04:13.508Z,30.27
2024-01-16T15:06:41.171Z,29.75
2024-01-16T15:09:11.688Z,33.60
2024-01-16T15:11:39.376Z,31.40
2024-01-16T15:14:06.735Z,32.65
2024-01-16T15:16:33.902Z,33.97
2024-01-16T15:19:01.477Z,30.02
2024-01-16T15:21:28.828Z,31.30
2024-01-16T15:23:56.030Z,33.95
2024-01-16T15:26:23.487Z,33.83
2024-01-16T15:28:51.039Z,34.90
2024-01-16T15:31:19.297Z,31.75
2024-01-16T15:33:46.859Z,31.95
2024-01-16T15:36:14.211Z,29.48
2024-01-16T15:38:41.590Z,26.85
2024-01-16T15:41:08.954Z,26.35
2024-01-16T15:43:36.614Z,26.05
2024-01-16T15:46:03.918Z,25.27
2024-01-16T15:48:35.662Z,27.38
2024-01-16T15:51:05.286Z,27.35
2024-01-16T15:53:36.703Z,24.15
2024-01-16T15:56:07.882Z,26.88
2024-01-16T15:58:35.622Z,30.02
2024-01-16T16:01:03.439Z,27.08
2024-01-16T16:03:32.107Z,24.45
2024-01-16T16:05:59.579Z,25.55
2024-01-16T16:08:27.802Z,26.30
2024-01-16T16:10:55.130Z,40.33
2024-01-16T16:13:22.546Z,34.17
2024-01-16T16:15:49.686Z,29.70
2024-01-16T16:18:16.959Z,27.30
2024-01-16T16:20:44.291Z,27.38
2024-01-16T16:23:11.604Z,25.48
2024-01-16T16:25:47.342Z,27.15
2024-01-16T16:28:15.136Z,35.63
2024-01-16T16:30:42.429Z,34.63
2024-01-16T16:33:10.466Z,30.42
2024-01-16T16:35:37.767Z,27.80
2024-01-16T16:38:06.250Z,29.00
2024-01-16T16:40:33.749Z,27.95
2024-01-16T16:43:01.418Z,28.30
2024-01-16T16:45:28.660Z,27.35
2024-01-16T16:47:56.042Z,28.65
2024-01-16T16:50:23.528Z,32.60
2024-01-16T16:52:51.235Z,33.35
2024-01-16T16:55:18.354Z,31.98
2024-01-16T16:57:45.741Z,32.97
2024-01-16T17:00:15.088Z,32.30
2024-01-16T17:02:42.533Z,31.13
2024-01-16T17:05:10.956Z,32.30
2024-01-16T17:07:38.269Z,30.30
2024-01-16T17:10:05.979Z,30.50
2024-01-16T17:12:33.551Z,32.35
2024-01-16T17:15:00.842Z,34.08
2024-01-16T17:17:30.442Z,30.60
2024-01-16T17:19:58.214Z,30.70
2024-01-16T17:22:25.353Z,30.77
2024-01-16T17:24:52.425Z,32.30
2024-01-16T17:27:19.905Z,29.83
2024-01-16T17:29:47.066Z,32.65
2024-01-16T17:32:14.170Z,31.42
2024-01-16T17:34:41.484Z,41.42
2024-01-16T17:37:08.938Z,41.13
2024-01-16T17:39:36.156Z,42.20
2024-01-16T17:42:05.015Z,49.20
2024-01-16T17:44:38.283Z,48.47
2024-01-16T17:47:05.772Z,46.00
2024-01-16T17:49:34.736Z,52.80
2024-01-16T17:52:05.006Z,56.80
2024-01-16T17:54:32.249Z,52.53
2024-01-16T17:56:59.565Z,46.80
2024-01-16T17:59:32.190Z,40.78
2024-01-16T18:01:59.546Z,42.28
2024-01-16T18:04:27.066Z,49.92
2024-01-16T18:06:54.292Z,50.60
2024-01-16T18:09:22.159Z,44.83
2024-01-16T18:11:59.512Z,45.65
2024-01-16T18:14:28.002Z,48.55
2024-01-16T18:16:55.402Z,48.45
2024-01-16T18:19:28.540Z,45.35
2024-01-16T18:24:24.147Z,45.25
2024-01-16T18:26:51.650Z,44.08
2024-01-16T18:29:21.873Z,43.83
2024-01-16T18:31:50.100Z,46.10
2024-01-16T18:34:23.276Z,46.80
2024-01-16T18:39:20.920Z,48.83
2024-01-16T18:41:52.996Z,59.08
2024-01-16T18:44:21.095Z,55.05
2024-01-16T18:46:48.304Z,53.55
2024-01-16T18:49:16.989Z,52.67
2024-01-16T18:51:44.506Z,51.78
2024-01-16T18:54:12.408Z,50.65
2024-01-16T18:56:39.885Z,41.13
2024-01-16T18:59:08.060Z,40.58
2024-01-16T19:01:36.119Z,36.55
2024-01-16T19:04:04.673Z,37.55
2024-01-16T19:06:32.010Z,41.03
2024-01-16T19:09:00.441Z,71.20
2024-01-16T19:11:28.467Z,75.60
2024-01-16T19:13:55.677Z,89.43
2024-01-16T19:16:24.261Z,87.93
2024-01-16T19:18:51.536Z,84.65
2024-01-16T19:21:18.839Z,82.55
2024-01-16T19:23:45.955Z,98.95
2024-01-16T19:26:13.532Z,92.70
2024-01-16T19:28:40.722Z,93.82
2024-01-16T19:31:08.031Z,94.47
2024-01-16T19:33:35.455Z,100.70
2024-01-16T19:36:05.139Z,95.00
2024-01-16T19:38:33.391Z,101.00
2024-01-16T19:41:00.574Z,104.43
2024-01-16T19:43:28.697Z,93.60
2024-01-16T19:45:55.919Z,102.68
2024-01-16T19:48:23.741Z,92.82
2024-01-16T19:50:50.995Z,90.93
2024-01-16T19:53:18.401Z,99.82
2024-01-16T19:55:46.122Z,100.18
2024-01-16T19:58:13.504Z,91.70
2024-01-16T20:00:41.084Z,99.30
2024-01-16T20:03:08.811Z,97.75
2024-01-16T20:05:43.823Z,99.32
2024-01-16T20:08:11.385Z,112.45
2024-01-16T20:10:42.179Z,116.20
2024-01-16T20:13:09.272Z,128.18
2024-01-16T20:15:37.173Z,132.10
2024-01-16T20:18:06.842Z,118.03
2024-01-16T20:20:35.325Z,126.93
2024-01-16T20:23:05.621Z,127.00
2024-01-16T20:25:32.882Z,117.13
2024-01-16T20:28:02.856Z,111.50
2024-01-16T20:30:29.958Z,118.93
2024-01-16T20:32:57.257Z,129.57
2024-01-16T20:35:26.099Z,122.80
2024-01-16T20:37:53.212Z,129.93
2024-01-16T20:40:21.111Z,128.48
2024-01-16T20:42:48.189Z,111.10
2024-01-16T20:45:15.366Z,108.18
2024-01-16T20:47:42.593Z,93.32
2024-01-16T20:50:12.458Z,96.45
2024-01-16T20:52:39.677Z,91.35
2024-01-16T20:55:08.746Z,128.63
2024-01-16T20:57:36.858Z,107.88
2024-01-16T21:00:10.926Z,101.43
2024-01-16T21:02:40.511Z,98.45
2024-01-16T21:05:08.501Z,90.50
2024-01-16T21:07:36.008Z,93.82
2024-01-16T21:10:03.485Z,109.15
2024-01-16T21:12:30.743Z,105.47
2024-01-16T21:14:58.002Z,113.68
2024-01-16T21:17:25.379Z,110.25
2024-01-16T21:19:53.527Z,110.95
2024-01-16T21:22:27.550Z,125.32
2024-01-16T21:24:57.912Z,99.93
2024-01-16T21:27:25.106Z,100.00
2024-01-16T21:29:52.722Z,90.30
2024-01-16T21:32:20.345Z,74.25
2024-01-16T21:34:49.081Z,68.65
2024-01-16T21:37:16.334Z,62.88
2024-01-16T21:39:44.285Z,58.80
2024-01-16T21:42:11.534Z,56.20
2024-01-16T21:44:38.860Z,71.22
2024-01-16T21:47:06.039Z,97.68
2024-01-16T21:49:33.148Z,102.45
2024-01-16T21:52:02.249Z,109.03
2024-01-16T21:54:30.107Z,100.47
2024-01-16T21:56:57.380Z,114.13
2024-01-16T21:59:24.649Z,95.38
2024-01-16T22:01:51.828Z,98.88
2024-01-16T22:04:19.203Z,96.82
2024-01-16T22:06:46.338Z,95.60
2024-01-16T22:09:15.605Z,85.78
2024-01-16T22:11:42.881Z,91.65
2024-01-16T22:14:10.097Z,77.22
2024-01-16T22:16:37.322Z,81.13
2024-01-16T22:19:04.792Z,71.82
2024-01-16T22:21:34.085Z,66.95
2024-01-16T22:24:01.736Z,53.13
2024-01-16T22:26:29.301Z,39.33
2024-01-16T22:28:56.743Z,35.92
2024-01-16T22:31:23.861Z,35.78
2024-01-16T22:33:51.214Z,32.53
2024-01-16T22:36:18.732Z,31.83
2024-01-16T22:38:48.897Z,32.17
2024-01-16T22:41:16.909Z,31.67
2024-01-16T22:43:46.382Z,29.40
2024-01-16T22:46:13.460Z,31.58
2024-01-16T22:48:41.637Z,31.48
2024-01-16T22:51:09.236Z,37.53
2024-01-16T22:53:36.860Z,44.25
2024-01-16T22:56:04.266Z,44.92
2024-01-16T22:58:31.552Z,54.03
2024-01-16T23:01:02.314Z,77.30
2024-01-16T23:03:30.710Z,73.97
2024-01-16T23:05:58.309Z,63.72
2024-01-16T23:08:25.488Z,62.35
2024-01-16T23:10:55.212Z,56.25
2024-01-16T23:13:22.939Z,61.08
2024-01-16T23:15:50.141Z,57.50
2024-01-16T23:18:17.432Z,53.97
2024-01-16T23:20:44.992Z,55.50
2024-01-16T23:23:19.093Z,54.35
2024-01-16T23:25:47.208Z,59.78
2024-01-16T23:28:14.566Z,60.03
2024-01-16T23:30:41.768Z,52.40
2024-01-16T23:33:09.487Z,57.28
2024-01-16T23:35:36.873Z,58.22
2024-01-16T23:38:07.125Z,58.50
2024-01-16T23:40:34.205Z,53.35
2024-01-16T23:43:01.879Z,52.97
2024-01-16T23:45:33.659Z,54.42
2024-01-16T23:48:01.430Z,53.08
2024-01-16T23:50:30.252Z,52.63
2024-01-16T23:52:57.577Z,50.35
2024-01-16T23:55:25.051Z,51.17
2024-01-16T23:57:52.266Z,47.80
